createdAt,value
2022-11-20T00:01:10.764Z,39.20
2022-11-20T00:07:12.698Z,38.58
2022-11-20T00:13:15.017Z,36.35
2022-11-20T00:19:17.064Z,33.38
2022-11-20T00:25:19.064Z,33.28
2022-11-20T00:31:21.556Z,33.70
2022-11-20T00:37:23.452Z,32.97
2022-11-20T00:43:25.956Z,34.60
2022-11-20T00:49:27.863Z,32.88
2022-11-20T00:55:29.735Z,38.35
2022-11-20T01:01:31.753Z,43.53
2022-11-20T01:07:33.755Z,36.70
2022-11-20T01:13:38.565Z,41.13
2022-11-20T01:19:40.464Z,39.30
2022-11-20T01:25:42.455Z,38.33
2022-11-20T01:31:45.170Z,39.70
2022-11-20T01:37:47.090Z,38.10
2022-11-20T01:43:49.044Z,34.67
2022-11-20T01:50:05.506Z,40.58
2022-11-20T01:56:11.314Z,44.72
2022-11-20T02:02:13.281Z,39.10
2022-11-20T02:08:15.462Z,39.45
2022-11-20T02:14:17.438Z,36.72
2022-11-20T02:20:22.026Z,35.38
2022-11-20T02:26:24.938Z,34.80
2022-11-20T02:32:29.573Z,35.13
2022-11-20T02:38:31.594Z,38.20
2022-11-20T02:44:33.574Z,35.03
2022-11-20T02:50:39.869Z,33.20
2022-11-20T02:56:41.975Z,38.33
2022-11-20T03:02:44.318Z,36.97
2022-11-20T03:08:46.339Z,34.38
2022-11-20T03:14:52.771Z,39.38
2022-11-20T03:20:59.921Z,37.92
2022-11-20T03:27:01.953Z,35.05
2022-11-20T03:33:03.976Z,33.15
2022-11-20T03:39:05.893Z,35.60
2022-11-20T03:45:08.374Z,41.60
2022-11-20T03:51:15.833Z,37.42
2022-11-20T03:57:17.744Z,34.78
2022-11-20T04:03:19.640Z,39.58
2022-11-20T04:09:21.705Z,36.47
2022-11-20T04:15:23.754Z,38.45
2022-11-20T04:21:26.723Z,41.50
2022-11-20T04:27:28.652Z,34.40
2022-11-20T04:33:34.124Z,39.80
2022-11-20T04:39:36.374Z,44.10
2022-11-20T04:45:38.297Z,40.97
2022-11-20T04:51:40.270Z,39.45
2022-11-20T04:57:42.193Z,39.72
2022-11-20T05:03:45.392Z,40.80
2022-11-20T05:09:47.291Z,34.80
2022-11-20T05:15:49.267Z,37.75
2022-11-20T05:21:51.497Z,39.92
2022-11-20T05:27:54.396Z,34.60
2022-11-20T05:33:58.207Z,31.75
2022-11-20T05:40:00.395Z,35.38
2022-11-20T05:46:02.630Z,37.58
2022-11-20T05:52:04.784Z,33.92
2022-11-20T05:58:06.732Z,38.28
2022-11-20T06:04:08.650Z,39.55
2022-11-20T06:10:11.521Z,40.67
2022-11-20T06:16:16.117Z,38.80
2022-11-20T06:22:17.995Z,40.47
2022-11-20T06:28:19.943Z,35.88
2022-11-20T06:34:21.817Z,39.35
2022-11-20T06:40:23.658Z,40.70
2022-11-20T06:46:25.584Z,44.03
2022-11-20T06:52:27.467Z,40.60
2022-11-20T06:58:32.046Z,46.08
2022-11-20T07:04:33.952Z,46.03
2022-11-20T07:10:36.324Z,44.40
2022-11-20T07:16:38.278Z,58.30
2022-11-20T07:22:40.538Z,55.30
2022-11-20T07:28:46.120Z,51.83
2022-11-20T07:34:48.078Z,47.37
2022-11-20T07:40:54.146Z,38.58
2022-11-20T07:46:56.084Z,38.45
2022-11-20T07:53:07.635Z,47.95
2022-11-20T07:59:09.509Z,45.33
2022-11-20T08:05:11.661Z,55.10
2022-11-20T08:11:32.198Z,50.63
2022-11-20T08:17:34.093Z,47.50
2022-11-20T08:23:35.980Z,45.85
2022-11-20T08:29:37.946Z,55.72
2022-11-20T08:35:39.952Z,50.45
2022-11-20T08:41:41.887Z,51.63
2022-11-20T08:47:44.357Z,49.40
2022-11-20T08:53:46.461Z,45.47
2022-11-20T09:00:05.582Z,50.15
2022-11-20T09:06:09.081Z,48.88
2022-11-20T09:12:11.010Z,47.63
2022-11-20T09:18:13.701Z,46.58
2022-11-20T09:24:15.599Z,49.05
2022-11-20T09:30:17.773Z,42.80
2022-11-20T09:36:19.741Z,41.15
2022-11-20T09:42:47.737Z,39.78
2022-11-20T09:49:19.375Z,39.83
2022-11-20T09:55:22.481Z,40.78
2022-11-20T10:01:30.233Z,38.13
2022-11-20T10:07:56.449Z,36.13
2022-11-20T10:14:16.169Z,37.40
2022-11-20T10:20:47.376Z,33.17
2022-11-20T10:27:06.817Z,33.17
2022-11-20T10:33:22.905Z,33.03
2022-11-20T10:39:36.344Z,34.15
2022-11-20T10:45:56.927Z,32.55
2022-11-20T10:52:30.508Z,33.45
2022-11-20T10:59:02.576Z,35.95
2022-11-20T11:05:34.514Z,33.65
2022-11-20T11:11:36.389Z,35.53
2022-11-20T11:17:48.135Z,33.85
2022-11-20T11:24:13.516Z,37.63
2022-11-20T11:30:22.795Z,39.08
2022-11-20T11:36:26.087Z,36.33
2022-11-20T11:42:30.144Z,34.75
2022-11-20T11:48:32.063Z,34.70
2022-11-20T11:54:58.406Z,33.47
2022-11-20T12:01:22.607Z,33.45
2022-11-20T12:07:47.702Z,34.20
2022-11-20T12:14:25.140Z,31.63
2022-11-20T12:20:46.678Z,33.47
2022-11-20T12:26:59.643Z,34.63
2022-11-20T12:33:07.676Z,30.83
2022-11-20T12:39:36.534Z,30.75
2022-11-20T12:46:13.077Z,30.50
2022-11-20T12:52:49.529Z,29.65
2022-11-20T12:58:51.447Z,28.20
2022-11-20T13:05:18.337Z,28.30
2022-11-20T13:11:29.293Z,30.92
2022-11-20T13:17:54.977Z,29.35
2022-11-20T13:24:27.366Z,31.25
2022-11-20T13:30:31.124Z,28.10
2022-11-20T13:36:33.572Z,31.92
2022-11-20T13:42:46.671Z,29.98
2022-11-20T13:48:48.717Z,26.25
2022-11-20T13:55:07.532Z,25.40
2022-11-20T14:01:11.342Z,23.98
2022-11-20T14:07:14.259Z,28.27
2022-11-20T14:13:20.824Z,27.17
2022-11-20T14:19:26.026Z,29.03
2022-11-20T14:25:28.308Z,28.55
2022-11-20T14:31:30.701Z,27.80
2022-11-20T14:37:35.271Z,28.42
2022-11-20T14:43:38.823Z,26.55
2022-11-20T14:49:41.813Z,26.90
2022-11-20T14:55:44.085Z,29.35
2022-11-20T15:02:06.854Z,29.58
2022-11-20T15:08:11.575Z,28.55
2022-11-20T15:14:13.452Z,29.05
2022-11-20T15:20:17.679Z,30.88
2022-11-20T15:26:26.658Z,27.95
2022-11-20T15:32:28.526Z,32.97
2022-11-20T15:38:30.452Z,31.75
2022-11-20T15:44:32.456Z,29.83
2022-11-20T15:50:38.817Z,31.63
2022-11-20T16:04:28.261Z,31.80
2022-11-20T16:10:30.712Z,30.50
2022-11-20T16:16:37.365Z,33.25
2022-11-20T16:22:39.235Z,35.47
2022-11-20T16:28:41.390Z,33.28
2022-11-20T16:34:43.289Z,31.42
2022-11-20T16:40:46.288Z,29.23
2022-11-20T16:46:48.211Z,29.13
2022-11-20T16:52:50.121Z,33.05
2022-11-20T16:58:55.833Z,30.58
2022-11-20T17:04:57.742Z,30.00
2022-11-20T17:11:08.799Z,30.67
2022-11-20T17:17:10.740Z,29.60
2022-11-20T17:23:12.659Z,28.08
2022-11-20T17:29:16.906Z,31.00
2022-11-20T17:35:18.762Z,29.63
2022-11-20T17:41:25.950Z,29.70
2022-11-20T17:53:34.589Z,27.42
2022-11-20T17:59:37.846Z,28.23
2022-11-20T18:05:39.822Z,29.33
2022-11-20T18:11:43.360Z,22.17
2022-11-20T18:17:45.231Z,35.42
2022-11-20T18:23:47.129Z,25.05
2022-11-20T18:29:52.098Z,21.88
2022-11-20T18:35:54.329Z,20.08
2022-11-20T18:42:14.768Z,23.08
2022-11-20T18:48:16.699Z,21.77
2022-11-20T18:54:18.813Z,24.13
2022-11-20T19:00:21.074Z,22.90
2022-11-20T19:06:23.314Z,25.60
2022-11-20T19:12:25.309Z,22.55
2022-11-20T19:18:28.493Z,20.38
2022-11-20T19:24:30.382Z,22.70
2022-11-20T19:30:33.389Z,24.63
2022-11-20T19:36:43.213Z,26.77
2022-11-20T19:42:46.585Z,28.15
2022-11-20T19:48:48.695Z,28.23
2022-11-20T19:54:50.771Z,24.98
2022-11-20T20:00:52.681Z,27.25
2022-11-20T20:06:54.649Z,26.83
2022-11-20T20:12:57.192Z,29.10
2022-11-20T20:19:01.786Z,28.42
2022-11-20T20:25:03.875Z,29.00
2022-11-20T20:31:07.880Z,31.80
2022-11-20T20:37:09.735Z,29.25
2022-11-20T20:43:11.603Z,27.75
2022-11-20T20:49:13.533Z,45.70
2022-11-20T20:55:15.498Z,27.80
2022-11-20T21:01:19.398Z,30.70
2022-11-20T21:07:21.663Z,28.15
2022-11-20T21:13:24.070Z,27.27
2022-11-20T21:19:26.054Z,56.45
2022-11-20T21:25:28.007Z,28.38
2022-11-20T21:31:31.140Z,24.40
2022-11-20T21:37:36.017Z,27.67
2022-11-20T21:43:42.911Z,37.22
2022-11-20T21:49:44.865Z,26.13
2022-11-20T21:55:54.475Z,23.40
2022-11-20T22:01:56.437Z,21.35
2022-11-20T22:07:58.400Z,20.08
2022-11-20T22:14:18.668Z,18.00
2022-11-20T22:20:20.566Z,15.68
2022-11-20T22:26:25.468Z,19.63
2022-11-20T22:32:27.334Z,19.05
2022-11-20T22:38:29.854Z,18.30
2022-11-20T22:44:31.861Z,13.20
2022-11-20T22:50:33.801Z,14.13
2022-11-20T22:56:35.690Z,14.20
2022-11-20T23:02:37.531Z,15.45
2022-11-20T23:08:40.691Z,15.30
2022-11-20T23:14:42.618Z,13.30
2022-11-20T23:20:44.513Z,15.85
2022-11-20T23:26:47.976Z,15.35
2022-11-20T23:32:49.897Z,15.60
2022-11-20T23:38:52.385Z,17.05
2022-11-20T23:44:54.235Z,16.95
2022-11-20T23:50:56.852Z,16.98
2022-11-20T23:56:58.774Z,17.23
